Time;durP1;ratioP1;P1;durP2;ratioP2;P2;SDS_P1;SDS_P2;PMS_P1;PMS_P2;Temp;Humidity;BMP_temperature;BMP_pressure;BME280_temperature;BME280_humidity;BME280_pressure;Samples;Min_cycle;Max_cycle;Signal;HPM_P1;HPM_P2
2021/10/26 00:00:21;;;;;;;38.45;19.20;;;;;;;;;;5065278;28;20059;-66
2021/10/26 00:02:47;;;;;;;25.77;14.35;;;;;;;;;;5086799;28;20048;-66
2021/10/26 00:05:13;;;;;;;22.13;13.52;;;;;;;;;;5079620;28;20099;-66
2021/10/26 00:07:39;;;;;;;23.67;12.73;;;;;;;;;;5084383;28;20104;-66
2021/10/26 00:10:06;;;;;;;31.90;15.15;;;;;;;;;;5079248;28;20124;-66
2021/10/26 00:12:33;;;;;;;19.67;11.25;;;;;;;;;;5072856;28;20044;-66
2021/10/26 00:14:59;;;;;;;23.65;10.75;;;;;;;;;;5078706;28;20106;-66
2021/10/26 00:17:26;;;;;;;23.27;10.48;;;;;;;;;;5071306;28;20045;-66
2021/10/26 00:19:52;;;;;;;14.37;7.87;;;;;;;;;;5081431;28;20048;-65
2021/10/26 00:22:18;;;;;;;20.08;10.05;;;;;;;;;;5075883;28;20044;-65
2021/10/26 00:24:45;;;;;;;14.15;7.97;;;;;;;;;;5088566;28;20048;-65
2021/10/26 00:27:11;;;;;;;15.52;9.15;;;;;;;;;;5074050;28;20083;-65
2021/10/26 00:29:37;;;;;;;14.18;8.68;;;;;;;;;;5095030;28;20044;-65
2021/10/26 00:32:04;;;;;;;19.52;9.63;;;;;;;;;;5084551;28;20059;-66
2021/10/26 00:34:30;;;;;;;17.20;9.43;;;;;;;;;;5089165;28;20063;-65
2021/10/26 00:36:56;;;;;;;18.17;9.98;;;;;;;;;;5082052;28;20050;-65
2021/10/26 00:39:22;;;;;;;19.35;10.25;;;;;;;;;;5074911;28;20045;-66
2021/10/26 00:41:49;;;;;;;22.55;11.02;;;;;;;;;;5077845;28;20121;-66
2021/10/26 00:44:15;;;;;;;20.88;11.52;;;;;;;;;;5079393;28;20076;-66
2021/10/26 00:46:41;;;;;;;19.23;11.00;;;;;;;;;;5076723;28;20117;-66
2021/10/26 00:49:11;;;;;;;21.23;10.85;;;;;;;;;;5081790;28;20066;-66
2021/10/26 00:51:38;;;;;;;21.50;10.90;;;;;;;;;;5072649;28;20037;-66
2021/10/26 00:54:05;;;;;;;21.53;11.50;;;;;;;;;;5083802;28;20069;-66
2021/10/26 00:56:32;;;;;;;28.57;12.30;;;;;;;;;;5074833;28;20298;-66
2021/10/26 00:58:59;;;;;;;30.48;15.27;;;;;;;;;;5081609;28;20173;-66
2021/10/26 01:01:25;;;;;;;36.03;17.73;;;;;;;;;;5085172;28;20071;-66
2021/10/26 01:03:51;;;;;;;37.03;18.20;;;;;;;;;;5087277;28;20079;-66
2021/10/26 01:06:18;;;;;;;47.63;21.85;;;;;;;;;;5074990;28;20526;-66
2021/10/26 01:08:44;;;;;;;49.97;22.58;;;;;;;;;;5081582;28;20048;-66
2021/10/26 01:11:10;;;;;;;58.17;24.42;;;;;;;;;;5077101;28;20040;-65
2021/10/26 01:13:37;;;;;;;74.72;30.45;;;;;;;;;;5082270;28;20098;-66
2021/10/26 01:16:04;;;;;;;88.78;35.63;;;;;;;;;;5074283;28;20083;-66
2021/10/26 01:18:30;;;;;;;90.15;37.17;;;;;;;;;;5084137;28;20067;-65
2021/10/26 01:20:57;;;;;;;83.28;36.13;;;;;;;;;;5076043;28;20105;-65
2021/10/26 01:23:23;;;;;;;109.30;40.67;;;;;;;;;;5091747;28;20048;-65
2021/10/26 01:25:50;;;;;;;108.13;42.03;;;;;;;;;;5091691;28;20127;-66
2021/10/26 01:28:16;;;;;;;118.13;43.70;;;;;;;;;;5079854;28;20062;-65
2021/10/26 01:30:42;;;;;;;116.57;44.28;;;;;;;;;;5088332;28;20076;-65
2021/10/26 01:33:09;;;;;;;121.40;46.75;;;;;;;;;;5081112;28;20063;-65
2021/10/26 01:35:35;;;;;;;134.70;47.80;;;;;;;;;;5069577;28;20436;-65
2021/10/26 01:38:02;;;;;;;133.68;50.25;;;;;;;;;;5077980;28;20036;-65
2021/10/26 01:40:28;;;;;;;146.07;51.08;;;;;;;;;;5080752;28;20056;-65
2021/10/26 01:42:55;;;;;;;153.73;50.63;;;;;;;;;;5082779;28;20043;-65
2021/10/26 01:45:21;;;;;;;156.95;53.00;;;;;;;;;;5084802;28;20049;-65
2021/10/26 01:47:47;;;;;;;141.95;56.28;;;;;;;;;;5083172;28;20068;-65
2021/10/26 01:50:15;;;;;;;171.57;54.83;;;;;;;;;;5078278;28;20617;-65
2021/10/26 01:52:41;;;;;;;;;;;;;;;;;;5080291;28;20115;-65
2021/10/26 01:55:08;;;;;;;163.75;54.33;;;;;;;;;;5078222;28;19932;-65
2021/10/26 01:57:34;;;;;;;173.85;57.22;;;;;;;;;;5075019;28;20044;-66
2021/10/26 02:00:04;;;;;;;174.88;57.97;;;;;;;;;;5077403;28;20607;-65
2021/10/26 02:02:30;;;;;;;180.70;57.85;;;;;;;;;;5083332;28;20075;-65
2021/10/26 02:04:57;;;;;;;178.68;58.40;;;;;;;;;;5075900;28;20075;-65
2021/10/26 02:07:23;;;;;;;173.98;55.05;;;;;;;;;;5072711;28;20092;-65
2021/10/26 02:09:49;;;;;;;180.88;55.88;;;;;;;;;;5075652;28;20103;-65
2021/10/26 02:12:15;;;;;;;160.32;54.13;;;;;;;;;;5084968;28;20089;-65
2021/10/26 02:14:41;;;;;;;177.13;56.08;;;;;;;;;;5075430;28;20060;-65
2021/10/26 02:17:08;;;;;;;189.45;58.97;;;;;;;;;;5072258;28;20044;-65
2021/10/26 02:19:34;;;;;;;167.27;55.13;;;;;;;;;;5082474;28;20068;-65
2021/10/26 02:22:01;;;;;;;178.07;58.53;;;;;;;;;;5084777;28;20071;-65
2021/10/26 02:24:27;;;;;;;181.45;56.47;;;;;;;;;;5073309;28;20077;-65
2021/10/26 02:26:54;;;;;;;167.52;54.47;;;;;;;;;;5066964;28;20055;-65
2021/10/26 02:29:21;;;;;;;188.95;58.03;;;;;;;;;;5068299;28;20053;-65
2021/10/26 02:31:47;;;;;;;164.10;55.03;;;;;;;;;;5070716;28;20084;-65
2021/10/26 02:34:13;;;;;;;159.38;56.63;;;;;;;;;;5069784;28;20049;-65
2021/10/26 02:36:39;;;;;;;167.93;56.55;;;;;;;;;;5074473;28;20049;-65
2021/10/26 02:39:06;;;;;;;166.10;55.67;;;;;;;;;;5080763;28;20913;-65
2021/10/26 02:41:32;;;;;;;167.50;56.40;;;;;;;;;;5083761;28;20044;-65
2021/10/26 02:43:59;;;;;;;168.65;55.58;;;;;;;;;;5088724;28;20086;-65
2021/10/26 02:46:25;;;;;;;167.75;56.15;;;;;;;;;;5080902;28;20053;-65
2021/10/26 02:48:51;;;;;;;167.85;54.95;;;;;;;;;;5080916;28;20136;-65
2021/10/26 02:51:17;;;;;;;164.48;55.33;;;;;;;;;;5081731;28;20412;-66
2021/10/26 02:53:44;;;;;;;164.82;53.58;;;;;;;;;;5080569;28;20046;-65
2021/10/26 02:56:10;;;;;;;160.20;54.00;;;;;;;;;;5084272;28;20040;-66
2021/10/26 02:58:36;;;;;;;158.55;53.58;;;;;;;;;;5079872;28;20123;-65
2021/10/26 03:01:03;;;;;;;171.30;55.80;;;;;;;;;;5072975;28;20388;-65
2021/10/26 03:03:29;;;;;;;164.23;52.10;;;;;;;;;;5078729;28;20048;-65
2021/10/26 03:05:56;;;;;;;156.38;54.47;;;;;;;;;;5071695;28;20695;-65
2021/10/26 03:08:22;;;;;;;163.30;55.58;;;;;;;;;;5077593;28;20511;-65
2021/10/26 03:10:48;;;;;;;161.77;56.47;;;10.10;99.90;;;;;;5071170;28;20096;-65
2021/10/26 03:13:14;;;;;;;173.18;56.50;;;10.20;99.90;;;;;;5079160;28;20037;-65
2021/10/26 03:15:40;;;;;;;152.30;52.67;;;;;;;;;;5084015;28;20131;-65
2021/10/26 03:18:07;;;;;;;146.48;54.72;;;;;;;;;;5078375;28;20052;-65
2021/10/26 03:20:33;;;;;;;153.90;52.83;;;;;;;;;;5076168;28;20040;-65
2021/10/26 03:22:59;;;;;;;160.13;56.55;;;;;;;;;;5080541;28;20617;-65
2021/10/26 03:25:25;;;;;;;153.70;53.35;;;;;;;;;;5072372;28;20045;-65
2021/10/26 03:27:51;;;;;;;183.68;55.70;;;;;;;;;;5081259;28;20049;-66
2021/10/26 03:30:17;;;;;;;180.70;55.47;;;;;;;;;;5074298;28;20478;-65
2021/10/26 03:32:43;;;;;;;163.98;54.17;;;;;;;;;;5074068;28;20057;-65
2021/10/26 03:35:10;;;;;;;167.13;54.28;;;;;;;;;;5084045;28;20055;-65
2021/10/26 03:37:37;;;;;;;167.68;55.60;;;;;;;;;;5078009;28;20045;-65
2021/10/26 03:40:05;;;;;;;153.43;52.92;;;;;;;;;;5077492;28;20041;-65
2021/10/26 03:42:31;;;;;;;195.48;56.72;;;;;;;;;;5075024;28;20064;-65
2021/10/26 03:44:57;;;;;;;180.63;56.33;;;;;;;;;;5081413;28;20068;-65
2021/10/26 03:47:23;;;;;;;168.73;54.65;;;;;;;;;;5084194;28;20040;-65
2021/10/26 03:49:49;;;;;;;174.65;54.10;;;;;;;;;;5080552;28;20061;-65
2021/10/26 03:52:15;;;;;;;180.82;55.10;;;;;;;;;;5079882;28;20349;-65
2021/10/26 03:54:42;;;;;;;181.43;54.00;;;;;;;;;;5077081;28;20052;-65
2021/10/26 03:57:12;;;;;;;157.02;52.65;;;;;;;;;;5073846;28;20037;-65
2021/10/26 03:59:39;;;;;;;167.43;55.90;;;;;;;;;;5083211;28;20074;-65
2021/10/26 04:02:09;;;;;;;163.10;53.53;;;;;;;;;;5072062;28;20048;-65
2021/10/26 04:04:35;;;;;;;164.20;51.33;;;;;;;;;;5072702;28;20052;-65
2021/10/26 04:07:04;;;;;;;158.65;51.80;;;;;;;;;;5087295;28;20049;-65
2021/10/26 04:09:50;;;;;;;160.45;51.63;;;;;;;;;;5071635;28;20549;-65
2021/10/26 04:12:23;;;;;;;149.40;49.85;;;;;;;;;;5079248;28;20067;-65
2021/10/26 04:14:49;;;;;;;143.75;48.50;;;;;;;;;;5072595;28;20102;-65
2021/10/26 04:17:16;;;;;;;155.80;50.20;;;;;;;;;;5083185;28;20574;-65
2021/10/26 04:19:42;;;;;;;163.07;50.40;;;;;;;;;;5084368;28;20100;-65
2021/10/26 04:22:10;;;;;;;145.93;48.47;;;;;;;;;;5075658;28;20041;-65
2021/10/26 04:24:37;;;;;;;139.88;47.97;;;;;;;;;;5075152;28;20072;-65
2021/10/26 04:27:03;;;;;;;137.18;46.92;;;;;;;;;;5071879;28;20045;-65
2021/10/26 04:29:29;;;;;;;144.82;46.70;;;;;;;;;;5072613;28;20043;-65
2021/10/26 04:31:55;;;;;;;122.07;42.42;;;;;;;;;;5076153;28;20056;-65
2021/10/26 04:34:21;;;;;;;131.45;42.65;;;;;;;;;;5066390;28;20064;-65
2021/10/26 04:36:47;;;;;;;114.97;40.83;;;;;;;;;;5078426;28;20096;-65
2021/10/26 04:39:13;;;;;;;111.47;40.47;;;;;;;;;;5079100;28;20037;-65
2021/10/26 04:41:40;;;;;;;112.78;40.92;;;;;;;;;;5078449;28;20048;-65
2021/10/26 04:44:06;;;;;;;107.97;38.17;;;;;;;;;;5077426;28;20040;-64
2021/10/26 04:46:33;;;;;;;96.47;37.13;;;;;;;;;;5084545;28;20033;-65
2021/10/26 04:48:59;;;;;;;109.03;38.78;;;;;;;;;;5087107;28;20101;-65
2021/10/26 04:51:25;;;;;;;108.43;38.60;;;;;;;;;;5078731;28;20051;-65
2021/10/26 04:53:51;;;;;;;111.50;38.88;;;;;;;;;;5076709;28;20040;-65
2021/10/26 04:56:17;;;;;;;95.93;36.08;;;;;;;;;;5080682;28;20536;-64
2021/10/26 04:58:43;;;;;;;99.40;34.25;;;;;;;;;;5086666;28;20912;-64
2021/10/26 05:01:09;;;;;;;96.63;37.20;;;;;;;;;;5087307;28;20439;-65
2021/10/26 05:03:36;;;;;;;99.97;35.53;;;;;;;;;;5073666;28;20049;-65
2021/10/26 05:06:05;;;;;;;99.28;36.28;;;;;;;;;;5083080;28;20499;-65
2021/10/26 05:08:31;;;;;;;98.07;36.92;;;;;;;;;;5077395;28;20045;-65
2021/10/26 05:10:57;;;;;;;87.68;33.45;;;;;;;;;;5084027;28;20076;-65
2021/10/26 05:13:23;;;;;;;95.65;35.83;;;;;;;;;;5079922;28;20041;-65
2021/10/26 05:15:50;;;;;;;111.10;35.92;;;;;;;;;;5076929;28;20513;-65
2021/10/26 05:18:17;;;;;;;112.22;36.33;;;;;;;;;;5080466;28;20092;-65
2021/10/26 05:20:45;;;;;;;108.93;34.95;;;;;;;;;;5087061;28;20052;-64
2021/10/26 05:23:11;;;;;;;107.15;35.65;;;;;;;;;;5076496;28;20044;-64
2021/10/26 05:25:37;;;;;;;111.13;35.28;;;;;;;;;;5081935;28;20044;-64
2021/10/26 05:28:04;;;;;;;108.65;37.60;;;;;;;;;;5074919;28;20142;-65
2021/10/26 05:30:30;;;;;;;121.28;39.63;;;;;;;;;;5073943;28;20045;-64
2021/10/26 05:32:56;;;;;;;122.10;40.40;;;;;;;;;;5085610;28;20075;-65
2021/10/26 05:35:22;;;;;;;133.15;40.50;;;;;;;;;;5077376;28;20523;-64
2021/10/26 05:37:48;;;;;;;140.70;38.63;;;;;;;;;;5079236;28;20496;-64
2021/10/26 05:40:14;;;;;;;149.10;40.72;;;;;;;;;;5075702;28;20029;-65
2021/10/26 05:42:40;;;;;;;140.27;40.83;;;;;;;;;;5089041;28;20491;-64
2021/10/26 05:45:07;;;;;;;157.35;44.28;;;;;;;;;;5087538;28;20052;-65
2021/10/26 05:47:33;;;;;;;173.18;42.88;;;;;;;;;;5084800;28;20066;-65
2021/10/26 05:49:59;;;;;;;170.27;43.92;;;;;;;;;;5076306;28;20056;-65
2021/10/26 05:52:25;;;;;;;186.00;45.83;;;;;;;;;;5082959;28;20105;-65
2021/10/26 05:54:51;;;;;;;193.68;45.42;;;;;;;;;;5076008;28;20070;-65
2021/10/26 05:57:17;;;;;;;192.90;46.55;;;;;;;;;;5080043;28;20074;-64
2021/10/26 05:59:43;;;;;;;176.13;45.75;;;;;;;;;;5078876;28;20127;-65
2021/10/26 06:02:10;;;;;;;194.20;44.63;;;;;;;;;;5082385;28;20114;-64
2021/10/26 06:04:36;;;;;;;256.58;51.38;;;;;;;;;;5085121;28;20041;-64
2021/10/26 06:07:02;;;;;;;193.10;45.10;;;;;;;;;;5083697;28;20036;-64
2021/10/26 06:09:30;;;;;;;215.85;46.85;;;;;;;;;;5082092;28;20401;-64
2021/10/26 06:11:57;;;;;;;;;;;;;;;;;;5082035;28;20131;-64
2021/10/26 06:14:24;;;;;;;238.18;47.35;;;;;;;;;;5079202;28;19921;-64
2021/10/26 06:16:50;;;;;;;188.73;45.85;;;;;;;;;;5080185;28;20075;-65
2021/10/26 06:19:16;;;;;;;190.25;44.30;;;;;;;;;;5083796;28;20036;-65
2021/10/26 06:21:42;;;;;;;215.02;48.83;;;;;;;;;;5081605;28;20109;-65
2021/10/26 06:24:09;;;;;;;188.60;47.67;;;;;;;;;;5074607;28;20050;-65
2021/10/26 06:26:35;;;;;;;181.48;46.05;;;;;;;;;;5079956;28;20041;-65
2021/10/26 06:29:01;;;;;;;184.18;47.63;;;;;;;;;;5081448;28;20052;-64
2021/10/26 06:31:27;;;;;;;200.85;47.35;;;;;;;;;;5071981;28;20045;-64
2021/10/26 06:33:53;;;;;;;174.57;44.35;;;;;;;;;;5079895;28;20053;-65
2021/10/26 06:36:19;;;;;;;203.57;48.53;;;;;;;;;;5082854;28;20040;-64
2021/10/26 06:38:46;;;;;;;187.13;47.42;;;;;;;;;;5085790;28;20105;-65
2021/10/26 06:41:12;;;;;;;165.48;45.10;;;;;;;;;;5081940;28;20040;-64
2021/10/26 06:43:38;;;;;;;176.77;46.10;;;;;;;;;;5076259;28;20489;-64
2021/10/26 06:46:05;;;;;;;161.98;44.58;;;;;;;;;;5072703;28;20096;-65
2021/10/26 06:48:31;;;;;;;184.13;44.22;;;;;;;;;;5071813;28;20056;-65
2021/10/26 06:50:57;;;;;;;157.75;44.55;;;;;;;;;;5080032;28;20093;-65
2021/10/26 06:53:24;;;;;;;162.00;44.17;;;;;;;;;;5065708;28;20060;-65
2021/10/26 06:55:51;;;;;;;151.25;44.67;;;;;;;;;;5065390;28;20041;-65
2021/10/26 06:58:17;;;;;;;160.73;46.00;;;;;;;;;;5064247;28;20048;-65
2021/10/26 07:00:43;;;;;;;154.63;46.47;;;;;;;;;;5066380;28;20041;-65
2021/10/26 07:03:10;;;;;;;135.32;39.35;;;;;;;;;;5076014;28;20041;-65
2021/10/26 07:05:37;;;;;;;150.98;46.90;;;;;;;;;;5075317;28;20051;-65
2021/10/26 07:08:03;;;;;;;158.65;41.53;;;;;;;;;;5076092;28;20045;-65
2021/10/26 07:10:29;;;;;;;147.32;45.00;;;;;;;;;;5081367;28;20441;-65
2021/10/26 07:12:56;;;;;;;155.60;43.28;;;;;;;;;;5073784;28;20449;-64
2021/10/26 07:15:22;;;;;;;166.30;43.03;;;;;;;;;;5066089;28;20059;-64
2021/10/26 07:17:49;;;;;;;145.23;44.15;;;;;;;;;;5065407;28;20048;-65
2021/10/26 07:20:16;;;;;;;143.57;42.08;;;;;;;;;;5080518;28;20048;-65
2021/10/26 07:22:50;;;;;;;142.85;43.33;;;;;;;;;;5079961;28;20056;-65
2021/10/26 07:25:16;;;;;;;155.43;43.50;;;;;;;;;;5064718;28;20040;-64
2021/10/26 07:27:42;;;;;;;154.30;43.10;;;;;;;;;;5067818;28;20059;-64
2021/10/26 07:30:10;;;;;;;141.38;40.30;;;;;;;;;;5079644;28;20048;-64
2021/10/26 07:32:36;;;;;;;129.55;41.10;;;;;;;;;;5086253;28;20559;-66
2021/10/26 07:35:03;;;;;;;141.77;40.42;;;;;;;;;;5070924;28;20059;-74
2021/10/26 07:37:41;;;;;;;123.80;42.70;;;;;;;;;;5087326;28;20202;-75
2021/10/26 07:40:07;;;;;;;117.47;40.60;;;;;;;;;;5075848;28;20239;-72
2021/10/26 07:42:33;;;;;;;108.10;40.20;;;;;;;;;;5079903;28;20040;-73
2021/10/26 07:44:59;;;;;;;110.65;37.10;;;;;;;;;;5075025;28;20079;-76
2021/10/26 07:47:26;;;;;;;97.68;39.45;;;;;;;;;;5078463;28;20059;-76
2021/10/26 07:49:53;;;;;;;104.13;39.15;;;;;;;;;;5077116;28;20041;-76
2021/10/26 07:52:21;;;;;;;97.10;35.60;;;;;;;;;;5072571;28;20913;-65
2021/10/26 07:54:52;;;;;;;99.72;38.40;;;;;;;;;;5079485;28;20044;-65
2021/10/26 07:57:20;;;;;;;110.03;39.33;;;11.30;99.90;;;;;;5075249;28;20100;-68
2021/10/26 07:59:46;;;;;;;;;;;10.80;99.90;;;;;;5079181;28;20043;-65
2021/10/26 08:02:16;;;;;;;80.80;34.97;;;;;;;;;;5081083;28;19920;-77
2021/10/26 08:04:45;;;;;;;91.10;36.95;;;;;;;;;;5095664;28;20071;-77
2021/10/26 08:07:12;;;;;;;89.55;37.83;;;;;;;;;;5085971;28;20049;-63
2021/10/26 08:09:39;;;;;;;76.97;34.95;;;;;;;;;;5076424;28;20044;-77
2021/10/26 08:12:05;;;;;;;86.65;35.40;;;;;;;;;;5076350;28;20048;-75
2021/10/26 08:14:32;;;;;;;79.35;33.55;;;;;;;;;;5096532;28;20074;-75
2021/10/26 08:16:58;;;;;;;65.35;30.42;;;;;;;;;;5074762;28;20052;-63
2021/10/26 08:19:24;;;;;;;63.95;29.83;;;;;;;;;;5075212;28;20052;-73
2021/10/26 08:21:50;;;;;;;62.17;29.83;;;;;;;;;;5076263;28;20108;-76
2021/10/26 08:24:19;;;;;;;57.20;28.83;;;;;;;;;;5072353;28;20547;-70
2021/10/26 08:26:55;;;;;;;46.20;26.30;;;;;;;;;;5066744;28;20052;-69
2021/10/26 08:29:41;;;;;;;53.40;27.88;;;;;;;;;;5072913;28;20074;-69
2021/10/26 08:35:15;;;;;;;58.22;27.52;;;;;;;;;;5074477;28;20037;-70
2021/10/26 08:37:39;;;;;;;50.25;25.80;;;;;;;;;;5067981;28;20087;-70
2021/10/26 08:40:06;;;;;;;50.92;26.58;;;;;;;;;;5077274;28;20068;-70
2021/10/26 08:42:32;;;;;;;47.97;24.02;;;;;;;;;;5082010;28;20404;-70
2021/10/26 08:45:00;;;;;;;42.58;23.70;;;;;;;;;;5068592;28;20045;-70
2021/10/26 08:47:26;;;;;;;;;;;;;;;;;;5073712;28;20052;-69
2021/10/26 08:49:53;;;;;;;44.55;21.63;;;;;;;;;;5071855;28;19929;-70
2021/10/26 08:52:20;;;;;;;42.33;23.08;;;;;;;;;;5069748;28;20053;-70
2021/10/26 08:54:46;;;;;;;43.00;22.10;;;;;;;;;;5072081;28;20109;-70
2021/10/26 08:57:13;;;;;;;43.17;22.42;;;;;;;;;;5073736;28;20391;-70
2021/10/26 08:59:40;;;;;;;40.15;23.35;;;;;;;;;;5065286;28;20117;-69
2021/10/26 09:02:06;;;;;;;49.63;24.17;;;;;;;;;;5087044;28;20060;-69
2021/10/26 09:04:36;;;;;;;41.00;23.42;;;;;;;;;;5074318;28;20753;-70
2021/10/26 09:07:06;;;;;;;40.75;23.15;;;;;;;;;;5089399;28;20041;-70
2021/10/26 09:09:36;;;;;;;41.78;22.25;;;;;;;;;;5078832;28;20052;-70
2021/10/26 09:17:34;;;;;;;34.17;19.42;;;;;;;;;;5081305;28;20088;-70
2021/10/26 09:20:01;;;;;;;31.63;18.83;;;;;;;;;;5081536;28;20052;-70
2021/10/26 09:22:29;;;;;;;32.38;19.23;;;;;;;;;;5077630;28;20061;-70
2021/10/26 09:24:55;;;;;;;49.08;18.77;;;;;;;;;;5071225;28;20053;-70
2021/10/26 09:27:22;;;;;;;36.20;17.63;;;;;;;;;;5071933;28;20048;-70
2021/10/26 09:29:49;;;;;;;23.77;15.07;;;;;;;;;;5078268;28;20036;-70
2021/10/26 09:32:45;;;;;;;24.90;15.35;;;;;;;;;;5084080;28;20056;-70
2021/10/26 09:35:20;;;;;;;29.50;16.20;;;;;;;;;;5064604;28;20059;-70
2021/10/26 09:37:52;;;;;;;37.40;16.23;;;;;;;;;;5078611;28;20043;-68
2021/10/26 09:40:19;;;;;;;26.08;14.75;;;;;;;;;;5073504;28;20045;-71
2021/10/26 09:42:46;;;;;;;26.95;14.07;;;;;;;;;;5083137;28;20036;-68
2021/10/26 09:45:32;;;;;;;23.83;13.25;;;;;;;;;;5072671;28;20401;-74
2021/10/26 09:48:06;;;;;;;27.40;14.65;;;;;;;;;;5083307;28;20086;-69
2021/10/26 09:50:33;;;;;;;31.17;14.52;;;;;;;;;;5086852;28;20247;-77
2021/10/26 09:53:03;;;;;;;23.30;12.83;;;;;;;;;;5081241;28;20041;-69
2021/10/26 09:55:36;;;;;;;28.20;14.45;;;;;;;;;;5077580;28;20044;-76
2021/10/26 09:58:03;;;;;;;31.35;15.52;;;;;;;;;;5075844;28;20071;-82
2021/10/26 10:00:31;;;;;;;27.60;14.20;;;;;;;;;;5083143;28;20068;-75
2021/10/26 10:03:01;;;;;;;28.92;13.15;;;;;;;;;;5075199;28;20037;-62
2021/10/26 10:05:29;;;;;;;27.55;13.90;;;;;;;;;;5073806;28;20879;-62
2021/10/26 10:07:56;;;;;;;26.95;12.60;;;;;;;;;;5073882;28;20036;-62
2021/10/26 10:10:22;;;;;;;30.67;13.60;;;;;;;;;;5079285;28;20040;-62
2021/10/26 10:13:01;;;;;;;24.13;14.45;;;;;;;;;;5073044;28;20041;-63
2021/10/26 10:15:28;;;;;;;26.48;12.07;;;;;;;;;;5078171;28;20055;-61
2021/10/26 10:17:55;;;;;;;28.10;13.73;;;;;;;;;;5081485;28;20067;-62
2021/10/26 10:20:22;;;;;;;25.73;13.82;;;;;;;;;;5075404;28;20083;-61
2021/10/26 10:22:48;;;;;;;26.83;13.02;;;;;;;;;;5080963;28;20044;-61
2021/10/26 10:25:15;;;;;;;22.92;12.80;;;;;;;;;;5075194;28;20080;-62
2021/10/26 10:27:47;;;;;;;27.98;12.60;;;;;;;;;;5080386;28;20535;-64
2021/10/26 10:30:13;;;;;;;23.88;13.63;;;;;;;;;;5083880;28;20041;-62
2021/10/26 10:32:40;;;;;;;28.65;13.20;;;;;;;;;;5077973;28;20044;-60
2021/10/26 10:35:12;;;;;;;25.90;11.85;;;;;;;;;;5076928;28;20496;-64
2021/10/26 10:37:38;;;;;;;25.95;12.48;;;;;;;;;;5079143;28;20047;-72
2021/10/26 10:40:05;;;;;;;21.15;12.75;;;;;;;;;;5068068;28;20519;-65
2021/10/26 10:42:31;;;;;;;21.67;11.47;;;;;;;;;;5070537;28;20084;-61
2021/10/26 10:45:02;;;;;;;25.85;12.82;;;;;;;;;;5073873;28;20102;-63
2021/10/26 10:47:38;;;;;;;33.33;14.27;;;;;;;;;;5068975;28;20732;-60
2021/10/26 10:50:23;;;;;;;19.98;11.18;;;;;;;;;;5070073;28;20064;-62
2021/10/26 10:53:08;;;;;;;22.75;10.93;;;;;;;;;;5070043;28;20041;-62
2021/10/26 10:55:35;;;;;;;22.98;10.82;;;;;;;;;;5073667;28;20052;-62
2021/10/26 10:58:27;;;;;;;22.95;11.82;;;;;;;;;;5075204;28;20127;-61
2021/10/26 11:01:13;;;;;;;25.90;11.65;;;;;;;;;;5020147;28;20038;-62
2021/10/26 11:03:40;;;;;;;26.02;11.48;;;;;;;;;;5015940;28;20052;-61
2021/10/26 11:06:06;;;;;;;21.25;12.07;;;;;;;;;;5019187;28;20080;-62
2021/10/26 11:08:48;;;;;;;30.15;13.73;;;;;;;;;;5020751;28;20106;-61
2021/10/26 11:11:16;;;;;;;19.80;12.02;;;;;;;;;;5020697;28;20104;-62
2021/10/26 11:13:42;;;;;;;23.77;12.80;;;;;;;;;;5020236;28;20510;-62
2021/10/26 11:16:09;;;;;;;31.40;14.07;;;;;;;;;;5020176;28;20136;-62
2021/10/26 11:18:36;;;;;;;18.52;12.65;;;;;;;;;;5020449;28;20082;-62
2021/10/26 11:21:21;;;;;;;27.20;12.50;;;;;;;;;;5021117;28;20525;-62
2021/10/26 11:23:48;;;;;;;24.52;12.57;;;;;;;;;;5008584;28;20314;-62
2021/10/26 11:26:16;;;;;;;21.48;11.85;;;;;;;;;;5020997;28;20097;-62
2021/10/26 11:28:42;;;;;;;;;;;;;;;;;;5021147;28;20462;-62
2021/10/26 11:31:12;;;;;;;24.77;11.77;;;;;;;;;;5019508;28;19944;-61
2021/10/26 11:33:44;;;;;;;24.52;12.55;;;;;;;;;;5020159;28;20062;-62
2021/10/26 11:36:11;;;;;;;19.45;11.18;;;;;;;;;;5003012;28;20057;-62
2021/10/26 11:38:41;;;;;;;20.88;11.82;;;;;;;;;;5066459;28;20041;-62
2021/10/26 11:41:11;;;;;;;22.23;11.38;;;;;;;;;;5079739;28;20086;-62
2021/10/26 11:43:54;;;;;;;18.98;9.60;;;;;;;;;;5079223;28;20067;-62
2021/10/26 11:46:37;;;;;;;30.88;11.10;;;;;;;;;;5071546;28;20129;-62
2021/10/26 11:49:06;;;;;;;22.40;10.10;;;;;;;;;;5071735;28;20056;-62
2021/10/26 11:51:39;;;;;;;15.93;8.95;;;;;;;;;;5072278;28;20059;-61
2021/10/26 11:54:15;;;;;;;19.90;9.07;;;;;;;;;;5092147;28;20043;-61
2021/10/26 11:57:10;;;;;;;27.00;9.48;;;;;;;;;;5068652;28;20045;-61
2021/10/26 11:59:41;;;;;;;23.00;9.10;;;;;;;;;;5007347;28;20124;-75
2021/10/26 12:02:10;;;;;;;18.27;9.35;;;;;;;;;;5017309;28;20041;-77
2021/10/26 12:05:00;;;;;;;23.75;9.20;;;;;;;;;;5012356;28;20058;-76
2021/10/26 12:07:26;;;;;;;17.20;8.05;;;;;;;;;;5014141;28;20050;-77
2021/10/26 12:09:57;;;;;;;17.77;8.70;;;;;;;;;;5015613;28;20054;-77
2021/10/26 12:12:30;;;;;;;17.02;7.82;;;;;;;;;;5015460;28;20301;-80
2021/10/26 12:15:00;;;;;;;16.23;8.38;;;;;;;;;;5004904;28;20043;-80
2021/10/26 12:17:29;;;;;;;21.35;9.57;;;;;;;;;;5011503;28;20054;-79
2021/10/26 12:20:10;;;;;;;18.65;9.52;;;;;;;;;;5013052;28;20053;-79
2021/10/26 12:22:41;;;;;;;14.90;8.65;;;;;;;;;;5011044;28;20106;-65
2021/10/26 12:25:18;;;;;;;19.52;8.15;;;;;;;;;;5015467;28;20582;-65
2021/10/26 12:27:48;;;;;;;19.42;7.60;;;;;;;;;;5014851;28;20042;-66
2021/10/26 12:30:14;;;;;;;17.58;8.70;;;;;;;;;;5005506;28;20058;-65
2021/10/26 12:32:41;;;;;;;18.02;8.88;;;;;;;;;;5013151;28;20058;-65
2021/10/26 12:35:11;;;;;;;20.87;8.63;;;;;;;;;;5020585;28;20563;-75
2021/10/26 12:37:37;;;;;;;17.08;8.85;;;;;;;;;;5082317;28;20105;-64
2021/10/26 12:40:11;;;;;;;17.55;8.80;;;;;;;;;;5081362;28;20045;-62
2021/10/26 12:42:40;;;;;;;27.33;10.35;;;;;;;;;;5080870;28;20504;-65
2021/10/26 12:45:17;;;;;;;15.13;8.75;;;;;;;;;;5079687;28;20096;-70
2021/10/26 12:47:52;;;;;;;23.33;8.80;;;;;;;;;;5077349;28;20037;-70
2021/10/26 12:50:26;;;;;;;14.77;8.05;;;;;;;;;;5079741;28;20048;-69
2021/10/26 12:53:11;;;;;;;18.00;9.10;;;;;;;;;;5078157;28;20375;-69
2021/10/26 12:55:41;;;;;;;19.10;9.15;;;;;;;;;;5076987;28;20075;-70
2021/10/26 12:58:26;;;;;;;22.42;9.10;;;;;;;;;;5080730;28;20037;-67
2021/10/26 13:00:52;;;;;;;20.48;9.38;;;;;;;;;;5077276;28;20075;-70
2021/10/26 13:03:23;;;;;;;19.75;10.88;;;;;;;;;;5079708;28;20040;-68
2021/10/26 13:06:04;;;;;;;18.48;9.20;;;;;;;;;;5084465;28;20040;-69
2021/10/26 13:08:30;;;;;;;22.13;10.32;;;;;;;;;;5086830;28;20036;-62
2021/10/26 13:10:56;;;;;;;15.73;8.95;;;;;;;;;;5073750;28;20107;-62
2021/10/26 13:13:22;;;;;;;16.90;8.75;;;;;;;;;;5081661;28;20575;-62
2021/10/26 13:15:48;;;;;;;17.35;8.45;;;;;;;;;;5075076;28;20404;-62
2021/10/26 13:18:24;;;;;;;18.52;9.05;;;;;;;;;;5075889;28;20037;-62
2021/10/26 13:20:53;;;;;;;16.63;8.70;;;;;;;;;;5079565;28;20041;-62
2021/10/26 13:23:31;;;;;;;14.75;7.88;;;;;;;;;;5074297;28;20045;-62
2021/10/26 13:26:01;;;;;;;17.05;7.63;;;;;;;;;;5071406;28;20040;-62
2021/10/26 13:28:28;;;;;;;13.68;6.25;;;;;;;;;;5079568;28;20040;-62
2021/10/26 13:31:02;;;;;;;12.82;5.10;;;;;;;;;;5083099;28;20037;-63
2021/10/26 13:33:33;;;;;;;10.75;4.90;;;;;;;;;;5075162;28;20092;-62
2021/10/26 13:36:00;;;;;;;10.07;5.50;;;;;;;;;;5080309;28;20094;-62
2021/10/26 13:38:27;;;;;;;12.68;6.07;;;;;;;;;;5079694;28;20048;-62
2021/10/26 13:40:53;;;;;;;10.07;6.75;;;;;;;;;;5081067;28;20051;-62
2021/10/26 13:43:20;;;;;;;11.98;6.65;;;;;;;;;;5079494;28;20050;-62
2021/10/26 13:45:46;;;;;;;25.33;7.75;;;;;;;;;;5072584;28;20074;-62
2021/10/26 13:48:13;;;;;;;16.50;8.02;;;;;;;;;;5079683;28;20045;-62
2021/10/26 13:50:42;;;;;;;17.90;7.25;;;;;;;;;;5080391;28;20072;-62
2021/10/26 13:53:10;;;;;;;16.20;7.47;;;;;;;;;;5081299;28;20036;-62
2021/10/26 13:55:37;;;;;;;15.43;7.20;;;;;;;;;;5081062;28;20123;-62
2021/10/26 13:58:04;;;;;;;14.70;9.35;;;;;;;;;;5083681;28;20032;-62
2021/10/26 14:00:31;;;;;;;15.07;8.80;;;;;;;;;;5080712;28;20044;-73
2021/10/26 14:02:57;;;;;;;12.23;8.30;;;;;;;;;;5075909;28;20087;-72
2021/10/26 14:05:23;;;;;;;16.30;11.00;;;;;;;;;;5076617;28;20051;-72
2021/10/26 14:07:49;;;;;;;18.75;10.25;;;;;;;;;;5086071;28;20131;-75
2021/10/26 14:10:16;;;;;;;16.83;10.68;;;;;;;;;;5083844;28;20044;-77
2021/10/26 14:12:44;;;;;;;20.30;13.70;;;;;;;;;;5077053;28;20048;-67
2021/10/26 14:15:10;;;;;;;22.83;15.52;;;;;;;;;;5076358;28;20118;-72
2021/10/26 14:17:37;;;;;;;27.38;15.70;;;;;;;;;;5076833;28;20075;-75
2021/10/26 14:20:04;;;;;;;28.70;15.98;;;;;;;;;;5076444;28;20128;-70
2021/10/26 14:22:30;;;;;;;28.23;16.15;;;;;;;;;;5081284;28;20076;-71
2021/10/26 14:24:56;;;;;;;25.88;16.85;;;;;;;;;;5075042;28;20045;-71
2021/10/26 14:27:22;;;;;;;29.88;17.90;;;;;;;;;;5074373;28;20056;-72